Tiempo atmosférico en la estación meteorológica de Campos, Salines Llevant, Illes Balears (3 m.)



Fecha
DESCASC
Temp. máxima en grados centígrados (hora)
DESCASC
Temp. mínima en grados centígrados (hora)
DESCASC
Temp. media en grados centígrados
DESCASC
Racha de viento máxima en m/sg (hora)
DESCASC
Velocidad máxima media en intervalos de 10 minutos(hora)
DESCASC
Precipitaciones diarias en mm
DESCASC
Precipitaciones de 00:00 a 06:00 en mm
DESCASC
Precipitaciones de 06:00 a 12:00 en mm
DESCASC
Precipitaciones de 12:00 a 18:00 en mm
DESCASC
Precipitaciones de 18:00 a 24:00 en mm
DESCASC
29-10-2020 23.8 (14:10) 8.3 (06:40) 16 6.67 (11:50) 4.17 (15:00) 0 0 0 0 0
28-10-2020 22.7 (14:00) 6.4 (06:20) 14.6 6.67 (16:20) 5 (16:20) 0 0 0 0 0
27-10-2020 21.2 (12:30) 7.5 (00:00) 14.4 9.17 (13:40) 6.39 (12:40) 0 0 0 0 0
26-10-2020 20.3 (06:50) 14.3 (00:00) 17.3 13.61 (07:20) 9.72 (13:20) 0.2 0 0.2 0 0
25-10-2020 22.8 (14:10) 19.7 (00:00) 21.3 13.61 (09:30) 8.89 (11:30) 0 0 0 0 0
24-10-2020 23.4 (12:50) 12.5 (00:00) 17.9 10.28 (23:40) 6.94 (15:50) 0 0 0 0 0
23-10-2020 23.6 (14:10) 18.3 (00:00) 20.9 12.22 (17:40) 7.78 (13:40) 0 0 0 0 0
22-10-2020 26.6 (15:00) 19.5 (00:00) 23.1 8.61 (11:40) 5.83 (11:20) 0 0 0 0 0
21-10-2020 24.8 (14:30) 19.1 (00:00) 21.9 10.28 (08:40) 6.94 (12:00) 0 0 0 0 0
20-10-2020 24.2 (16:20) 7.6 (00:00) 15.9 10.83 (12:40) 6.94 (12:20) 0 0 0 0 0
19-10-2020 23.1 (14:00) 7.2 (00:00) 15.2 9.72 (16:40) 5.83 (16:10) 0 0 0 0 0
18-10-2020 22.6 (16:10) 5.4 (00:00) 14 6.67 (14:30) 3.89 (14:30) 0 0 0 0 0
17-10-2020 21.1 (16:30) 4.4 (00:00) 12.8 6.11 (13:50) 3.61 (14:00) 0 0 0 0 0
16-10-2020 19.7 (15:20) 4.8 (00:00) 12.3 9.72 (15:40) 5.83 (14:00) 0 0 0 0 0
15-10-2020 19.8 (16:00) 5.1 (00:00) 12.4 13.33 (13:40) 8.06 (16:30) 0 0 0 0 0
14-10-2020 21.3 (08:30) 10.8 (00:00) 16 12.5 (12:30) 8.61 (12:30) 0.8 0 0.4 0.4 0
13-10-2020 23.6 (16:10) 8.4 (00:00) 16 13.06 (16:50) 8.61 (15:40) 0.4 0 0 0 0.4
12-10-2020 22.3 (15:10) 9.2 (00:00) 15.7 11.11 (15:50) 8.33 (15:50) 0 0 0 0 0
11-10-2020 19.4 (11:40) 11 (00:00) 15.2 11.11 (00:40) 7.22 (00:40) 0 0 0 0 0
10-10-2020 25.2 (14:40) 15 (00:00) 20.1 7.5 (15:40) 4.72 (15:20) 0 0 0 0 0
09-10-2020 25.6 (15:40) 12.1 (00:00) 18.9 6.67 (16:20) 3.89 (16:20) 0 0 0 0 0
08-10-2020 25 (11:50) 13.9 (00:00) 19.4 5.83 (14:40) 3.61 (15:20) 0 0 0 0 0
07-10-2020 28.4 (16:40) 18.1 (00:00) 23.3 11.39 (17:40) 7.5 (14:40) 0 0 0 0 0
06-10-2020 24.4 (16:00) 7.7 (00:00) 16 9.44 (15:10) 6.11 (14:00) 0 0 0 0 0
05-10-2020 22.8 (14:50) 10.6 (00:00) 16.7 10.83 (12:00) 8.33 (11:50) 0 0 0 0 0
04-10-2020 22.7 (13:40) 19.7 (00:00) 21.2 16.39 (11:40) 11.11 (12:40) 0 0 0 0 0
03-10-2020 22.1 (16:00) 10.7 (00:00) 16.4 13.89 (12:40) 8.89 (15:10) 0 0 0 0 0
02-10-2020 25.3 (14:30) 13.1 (00:00) 19.2 18.33 (19:10) 12.5 (19:10) 2.8 0 0 0 2.8
01-10-2020 26 (14:40) 14.4 (00:00) 20.2 10.28 (12:40) 5.56 (15:30) 0 0 0 0 0

Gráficas

Temp. máximas Temp. mínimas Temp. medias Precipitaciones Rachas de viento máximas Velocidades máximas media en intervalos de 10 minutos

Datos horarios

Fecha y hora oficial Temperatura (ºC) Velocidad del viento (km/h) Dirección del viento Racha (km/h) Dirección de racha Precipitación (mm) Presión (hPa) Tendencia (hPa) Humedad (%)
2020-10-30 23:00:00 10.8 0 Calma 3 Sur 0 -- -- 92
2020-10-30 22:00:00 11.5 2 Sudeste 3 Sudeste 0 -- -- 91
2020-10-30 21:00:00 13.1 0 Calma 3 Sudeste 0 -- -- 90
2020-10-30 20:00:00 14.5 3 Sudeste 5 Sudeste 0 -- -- 91
2020-10-30 19:00:00 15.9 4 Sur 5 Sur 0 -- -- 86
2020-10-30 18:00:00 19.4 3 Sur 12 Sudoeste 0 -- -- 81
2020-10-30 17:00:00 21.5 7 Sudoeste 16 Sudoeste 0 -- -- 77
2020-10-30 16:00:00 22 10 Sudoeste 20 Oeste 0 -- -- 75
2020-10-30 15:00:00 22.4 11 Sudoeste 22 Oeste 0 -- -- 74
2020-10-30 14:00:00 22.1 13 Sudoeste 23 Oeste 0 -- -- 76
2020-10-30 13:00:00 22 12 Sudoeste 19 Oeste 0 -- -- 77
2020-10-30 12:00:00 21.9 9 Sudoeste 17 Sudoeste 0 -- -- 75
2020-10-30 11:00:00 21.4 8 Sudoeste 13 Sudoeste 0 -- -- 78
2020-10-30 10:00:00 16.7 0 Calma 3 Oeste 0 -- -- 91
2020-10-30 09:00:00 11.5 0 Calma 2 Norte 0 -- -- 98
2020-10-30 08:00:00 9 0 Calma 2 Sudeste 0 -- -- 97
2020-10-30 07:00:00 8.4 0 Calma 0 Calma 0 -- -- 95
2020-10-30 06:00:00 8.3 0 Calma 2 Este 0 -- -- 93
2020-10-30 05:00:00 8.4 0 Calma 2 Nordeste 0 -- -- 93
2020-10-30 04:00:00 8.6 0 Calma 3 Sudeste 0 -- -- 92
2020-10-30 03:00:00 9.1 0 Calma 3 Norte 0 -- -- 91
2020-10-30 02:00:00 10.1 2 Norte 4 Norte 0 -- -- 93
2020-10-30 01:00:00 10.3 0 Calma 3 Norte 0 -- -- 91
2020-10-30 00:00:00 10.8 0 Calma 5 Norte 0 -- -- 90
2020-10-29 23:00:00 12.1 0 Calma 4 Norte 0 -- -- 92
2020-10-29 22:00:00 12.3 2 Sudoeste 2 Sur 0 -- -- 87
2020-10-29 21:00:00 14.3 0 Calma 9 Sudeste 0 -- -- 88
2020-10-29 20:00:00 14.5 5 Sudeste 6 Sudeste 0 -- -- 85
2020-10-29 19:00:00 16.2 3 Sudeste 4 Sudeste 0 -- -- 79
2020-10-29 18:00:00 19.7 3 Sur 11 Sur 0 -- -- 74
2020-10-29 17:00:00 21.3 8 Sur 20 Sur 0 -- -- 69
2020-10-29 16:00:00 22 13 Sur 21 Sudoeste 0 -- -- 67
2020-10-29 15:00:00 22.6 15 Sudoeste 22 Sudoeste 0 -- -- 65
2020-10-29 14:00:00 23.4 11 Sudeste 20 Sudeste 0 -- -- 60
2020-10-29 13:00:00 22.7 8 Sudeste 21 Este 0 -- -- 61
2020-10-29 12:00:00 22.7 12 Sudeste 24 Sudeste 0 -- -- 61
2020-10-29 11:00:00 22 12 Sudeste 18 Este 0 -- -- 62
2020-10-29 10:00:00 19.2 5 Norte 12 Nordeste 0 -- -- 76
2020-10-29 09:00:00 13.9 3 Noroeste 5 Noroeste 0 -- -- 91
2020-10-29 08:00:00 9.8 0 Calma 3 Norte 0 -- -- 94
2020-10-29 07:00:00 8.4 0 Calma 3 Sur 0 -- -- 93
2020-10-29 06:00:00 8.5 0 Calma 2 Sudeste 0 -- -- 92
2020-10-29 05:00:00 9.6 3 Norte 5 Sudeste 0 -- -- 93
2020-10-29 04:00:00 9.3 2 Sudeste 3 Sudeste 0 -- -- 91
2020-10-29 03:00:00 10.4 0 Calma 8 Norte 0 -- -- 91
2020-10-29 02:00:00 10.3 0 Calma 3 Norte 0 -- -- 90
2020-10-29 01:00:00 11.1 0 Calma 3 Sur 0 -- -- 90
2020-10-29 00:00:00 11.6 0 Calma 5 Sudeste 0 -- -- 90
2020-10-28 23:00:00 12.1 3 Sudeste 4 Sudeste 0 -- -- 87
2020-10-28 22:00:00 13.9 0 Calma 5 Sur 0 -- -- 83
2020-10-28 21:00:00 15.1 0 Calma 4 Sudeste 0 -- -- 78
2020-10-28 20:00:00 17.7 3 Norte 16 Oeste 0 -- -- 74
2020-10-28 19:00:00 19.1 5 Oeste 16 Oeste 0 -- -- 71
2020-10-28 18:00:00 19.7 10 Oeste 21 Oeste 0 -- -- 68
2020-10-28 17:00:00 21.4 10 Oeste 24 Oeste 0 -- -- 62
2020-10-28 16:00:00 22.1 16 Oeste 24 Sudoeste 0 -- -- 61
2020-10-28 15:00:00 22.6 14 Oeste 24 Sudoeste 0 -- -- 57
2020-10-28 14:00:00 22.7 12 Sudoeste 23 Oeste 0 -- -- 57
2020-10-28 13:00:00 22.5 10 Sudoeste 22 Sudoeste 0 -- -- 60
2020-10-28 12:00:00 22.1 11 Oeste 18 Oeste 0 -- -- 62
2020-10-28 11:00:00 21.7 9 Oeste 15 Sudoeste 0 -- -- 62
2020-10-28 10:00:00 17.2 4 Noroeste 5 Noroeste 0 -- -- 72
2020-10-28 09:00:00 11.7 2 Noroeste 4 Norte 0 -- -- 80
2020-10-28 08:00:00 8.6 0 Calma 2 Norte 0 -- -- 90
2020-10-28 07:00:00 6.5 0 Calma 2 Sudeste 0 -- -- 90
2020-10-28 06:00:00 6.5 0 Calma 2 Noroeste 0 -- -- 89
2020-10-28 05:00:00 7.1 0 Calma 5 Norte 0 -- -- 89
2020-10-28 04:00:00 6.7 0 Calma 2 Sudeste 0 -- -- 88
2020-10-28 03:00:00 7.1 0 Calma 3 Sudeste 0 -- -- 88
2020-10-28 02:00:00 7.5 0 Calma 3 Sudeste 0 -- -- 86
2020-10-28 01:00:00 8.1 0 Calma 4 Sudeste 0 -- -- 85
2020-10-28 00:00:00 8.4 3 Sudeste 4 Sudeste 0 -- -- 83
2020-10-27 23:00:00 9.5 0 Calma 5 Sudeste 0 -- -- 81
2020-10-27 22:00:00 9.9 5 Sudeste 6 Sudeste 0 -- -- 77
2020-10-27 21:00:00 12.4 2 Norte 4 Noroeste 0 -- -- 71
2020-10-27 20:00:00 15.6 6 Noroeste 14 Oeste 0 -- -- 66
2020-10-27 19:00:00 17.1 10 Oeste 17 Oeste 0 -- -- 60
2020-10-27 18:00:00 17.6 13 Oeste 24 Oeste 0 -- -- 57
2020-10-27 17:00:00 19 15 Oeste 28 Oeste 0 -- -- 53
2020-10-27 16:00:00 20 17 Oeste 30 Oeste 0 -- -- 52
2020-10-27 15:00:00 19.8 17 Oeste 30 Oeste 0 -- -- 53
2020-10-27 14:00:00 20.6 21 Oeste 33 Oeste 0 -- -- 46
2020-10-27 13:00:00 20.7 21 Oeste 31 Oeste 0 -- -- 49
2020-10-27 12:00:00 19.9 14 Noroeste 30 Oeste 0 -- -- 48
2020-10-27 11:00:00 19.6 19 Oeste 28 Oeste 0 -- -- 48
2020-10-27 10:00:00 18 14 Noroeste 21 Noroeste 0 -- -- 54
2020-10-27 09:00:00 14 6 Norte 8 Norte 0 -- -- 72
2020-10-27 08:00:00 9.8 0 Calma 5 Sudeste 0 -- -- 82
2020-10-27 07:00:00 7.6 0 Calma 9 Oeste 0 -- -- 83
2020-10-27 06:00:00 8 2 Sudeste 8 Sudeste 0 -- -- 81
2020-10-27 05:00:00 8.7 3 Este 7 Sudeste 0 -- -- 78
2020-10-27 04:00:00 8.4 0 Calma 6 Sudeste 0 -- -- 77
2020-10-27 03:00:00 9.5 0 Calma 7 Noroeste 0 -- -- 74
2020-10-27 02:00:00 12.6 4 Noroeste 15 Noroeste 0 -- -- 67
2020-10-27 01:00:00 15.5 9 Noroeste 24 Noroeste 0 -- -- 57
2020-10-27 00:00:00 15.4 20 Noroeste 25 Noroeste 0 -- -- 57
2020-10-26 23:00:00 14.4 9 Noroeste 21 Noroeste 0 -- -- 61
2020-10-26 22:00:00 15.2 13 Oeste 30 Oeste 0 -- -- 59
2020-10-26 21:00:00 15.4 12 Oeste 16 Noroeste 0 -- -- 57
2020-10-26 20:00:00 15.6 10 Oeste 23 Oeste 0 -- -- 57
2020-10-26 19:00:00 16.1 15 Noroeste 32 Oeste 0 -- -- 54
2020-10-26 18:00:00 17 20 Oeste 35 Oeste 0 -- -- 53
2020-10-26 17:00:00 17.7 24 Noroeste 39 Noroeste 0 -- -- 51
2020-10-26 16:00:00 18.2 29 Noroeste 44 Oeste 0 -- -- 49
2020-10-26 15:00:00 18.9 31 Noroeste 46 Noroeste 0 -- -- 48
2020-10-26 14:00:00 18.6 34 Noroeste 48 Noroeste 0 -- -- 54
2020-10-26 13:00:00 18.1 34 Noroeste 44 Noroeste 0 -- -- 58
2020-10-26 12:00:00 16.7 21 Noroeste 27 Noroeste 0 -- -- 70
2020-10-26 11:00:00 16.1 18 Noroeste 27 Noroeste 0.2 -- -- 81
2020-10-26 10:00:00 16.8 17 Noroeste 29 Noroeste 0 -- -- 80
2020-10-26 09:00:00 17.6 18 Noroeste 38 Noroeste 0 -- -- 72
2020-10-26 08:00:00 19.2 26 Noroeste 49 Oeste 0 -- -- 73
2020-10-26 07:00:00 20.1 25 Oeste 46 Oeste 0 -- -- 73
2020-10-26 06:00:00 20 20 Sudoeste 36 Sudoeste 0 -- -- 86
2020-10-26 05:00:00 19.9 21 Sudoeste 39 Sudoeste 0 -- -- 86
2020-10-26 04:00:00 19.8 16 Sudoeste 42 Oeste 0 -- -- 82
2020-10-26 03:00:00 19.9 21 Sudoeste 45 Oeste 0 -- -- 81
2020-10-26 02:00:00 19.9 19 Sudoeste 41 Sudoeste 0 -- -- 80
2020-10-26 01:00:00 20 17 Sudoeste 41 Oeste 0 -- -- 81
2020-10-26 00:00:00 19.9 20 Sudoeste 36 Sudoeste 0 -- -- 80
2020-10-25 23:00:00 19.9 18 Sudoeste 37 Sudoeste 0 -- -- 81
2020-10-25 22:00:00 19.8 23 Sudoeste 41 Sudoeste 0 -- -- 81
2020-10-25 21:00:00 20 18 Sudoeste 40 Sudoeste 0 -- -- 79
2020-10-25 20:00:00 20 21 Sudoeste 37 Sudoeste 0 -- -- 79
2020-10-25 19:00:00 20.1 19 Sudoeste 39 Oeste 0 -- -- 81
2020-10-25 18:00:00 20.2 17 Sudoeste 38 Sudoeste 0 -- -- 77
2020-10-25 17:00:00 21 20 Sudoeste 39 Sudoeste 0 -- -- 74
2020-10-25 16:00:00 22.3 19 Sudoeste 36 Sudoeste 0 -- -- 64
2020-10-25 15:00:00 22.5 18 Sudoeste 36 Sudoeste 0 -- -- 66
2020-10-25 14:00:00 22.6 18 Sudoeste 36 Sudoeste 0 -- -- 67
2020-10-25 13:00:00 22.7 20 Sudoeste 40 Oeste 0 -- -- 59
2020-10-25 12:00:00 22 31 Oeste 46 Oeste 0 -- -- 64
2020-10-25 11:00:00 21.7 30 Oeste 45 Oeste 0 -- -- 65
2020-10-25 10:00:00 21.1 31 Oeste 49 Oeste 0 -- -- 66
2020-10-25 09:00:00 20.7 25 Oeste 41 Oeste 0 -- -- 67
2020-10-25 08:00:00 20.2 30 Oeste 47 Oeste 0 -- -- 68
2020-10-25 07:00:00 20.2 28 Oeste 40 Oeste 0 -- -- 66
2020-10-25 06:00:00 20.2 25 Oeste 38 Oeste 0 -- -- 65
2020-10-25 05:00:00 20 18 Sudoeste 34 Oeste 0 -- -- 77
2020-10-25 04:00:00 19.9 24 Oeste 38 Sudoeste 0 -- -- 77
2020-10-25 03:00:00 19.8 15 Sudoeste 41 Sudoeste 0 -- -- 78
2020-10-25 02:00:00 19.9 20 Sudoeste 32 Sudoeste 0 -- -- 77
2020-10-25 01:00:00 19.9 20 Oeste 35 Sudoeste 0 -- -- 70
2020-10-25 00:00:00 19.7 20 Oeste 37 Oeste 0 -- -- 71
2020-10-24 23:00:00 19.5 17 Sudoeste 31 Oeste 0 -- -- 69
2020-10-24 22:00:00 19.3 14 Oeste 23 Sudoeste 0 -- -- 70
2020-10-24 21:00:00 19.4 14 Oeste 30 Oeste 0 -- -- 71
2020-10-24 20:00:00 19.4 11 Oeste 18 Oeste 0 -- -- 70
2020-10-24 19:00:00 20.1 13 Oeste 24 Oeste 0 -- -- 67
2020-10-24 18:00:00 21.2 17 Oeste 31 Oeste 0 -- -- 60
2020-10-24 17:00:00 21.6 22 Oeste 36 Oeste 0 -- -- 61
2020-10-24 16:00:00 22.1 24 Oeste 35 Oeste 0 -- -- 57
2020-10-24 15:00:00 22.6 20 Oeste 31 Oeste 0 -- -- 54
2020-10-24 14:00:00 22.6 21 Oeste 32 Oeste 0 -- -- 51
2020-10-24 13:00:00 23.3 15 Sudoeste 21 Oeste 0 -- -- 48
2020-10-24 12:00:00 22.2 13 Noroeste 18 Noroeste 0 -- -- 51
2020-10-24 11:00:00 20.9 2 Noroeste 8 Noroeste 0 -- -- 63
2020-10-24 10:00:00 17 2 Noroeste 3 Norte 0 -- -- 81
2020-10-24 09:00:00 13.3 2 Sur 3 Sudeste 0 -- -- 90
2020-10-24 08:00:00 12.8 3 Noroeste 8 Noroeste 0 -- -- 91
2020-10-24 07:00:00 13.5 5 Noroeste 9 Norte 0 -- -- 89
2020-10-24 06:00:00 15.5 3 Este 13 Oeste 0 -- -- 81
2020-10-24 05:00:00 17.7 6 Sudoeste 11 Sudoeste 0 -- -- 77
2020-10-24 04:00:00 18.9 4 Nordeste 27 Oeste 0 -- -- 70
2020-10-24 03:00:00 20.4 19 Oeste 30 Oeste 0 -- -- 66
2020-10-24 02:00:00 20.6 19 Oeste 35 Oeste 0 -- -- 76
2020-10-24 01:00:00 20.6 22 Oeste 29 Oeste 0 -- -- 80
2020-10-24 00:00:00 20.6 17 Oeste 28 Sudoeste 0 -- -- 74
2020-10-23 23:00:00 20.5 13 Sudoeste 28 Sudoeste 0 -- -- 75
2020-10-23 22:00:00 20.6 14 Sudoeste 37 Sudoeste 0 -- -- 73
2020-10-23 21:00:00 20.7 19 Oeste 35 Oeste 0 -- -- 70
2020-10-23 20:00:00 20.8 25 Oeste 34 Oeste 0 -- -- 66
2020-10-23 19:00:00 21.1 22 Oeste 35 Oeste 0 -- -- 65
2020-10-23 18:00:00 22 23 Oeste 44 Oeste 0 -- -- 66
2020-10-23 17:00:00 22.2 25 Oeste 41 Oeste 0 -- -- 66
2020-10-23 16:00:00 22.6 24 Oeste 42 Oeste 0 -- -- 65
2020-10-23 15:00:00 23.6 23 Oeste 39 Oeste 0 -- -- 61
2020-10-23 14:00:00 23.5 27 Oeste 42 Oeste 0 -- -- 65
2020-10-23 13:00:00 23.3 27 Oeste 37 Oeste 0 -- -- 66
2020-10-23 12:00:00 23.1 24 Oeste 38 Oeste 0 -- -- 73
2020-10-23 11:00:00 22.5 23 Oeste 34 Oeste 0 -- -- 79
2020-10-23 10:00:00 21.2 21 Oeste 33 Oeste 0 -- -- 82
2020-10-23 09:00:00 21.1 24 Oeste 32 Oeste 0 -- -- 79
2020-10-23 08:00:00 21.1 22 Oeste 31 Oeste 0 -- -- 82
2020-10-23 07:00:00 20.9 17 Oeste 29 Oeste 0 -- -- 81
2020-10-23 06:00:00 20.5 15 Oeste 23 Oeste 0 -- -- 81
2020-10-23 05:00:00 19 2 Sudoeste 14 Oeste 0 -- -- 86
2020-10-23 04:00:00 18.7 7 Noroeste 9 Oeste 0 -- -- 87
2020-10-23 03:00:00 18.7 2 Nordeste 12 Noroeste 0 -- -- 87
2020-10-23 02:00:00 18.7 8 Este 13 Nordeste 0 -- -- 89
2020-10-23 01:00:00 18.8 0 Calma 5 Noroeste 0 -- -- 83
2020-10-23 00:00:00 19.5 3 Noroeste 8 Norte 0 -- -- 82
2020-10-22 23:00:00 20 3 Nordeste 8 Sudeste 0 -- -- 82
2020-10-22 22:00:00 20.1 4 Sudeste 10 Sur 0 -- -- 79
2020-10-22 21:00:00 19.5 4 Este 6 Este 0 -- -- 77
2020-10-22 20:00:00 20.6 2 Sudoeste 4 Sudeste 0 -- -- 72
2020-10-22 19:00:00 22.8 0 Calma 6 Sur 0 -- -- 67
2020-10-22 18:00:00 24.3 3 Sur 12 Sudoeste 0 -- -- 62
2020-10-22 17:00:00 24.9 8 Sur 14 Sudeste 0 -- -- 63
2020-10-22 16:00:00 25.5 10 Sudoeste 17 Sur 0 -- -- 59
2020-10-22 15:00:00 26.6 10 Sur 21 Sudoeste 0 -- -- 53
2020-10-22 14:00:00 25.7 15 Sudoeste 25 Sur 0 -- -- 59
2020-10-22 13:00:00 25.6 18 Sur 27 Sur 0 -- -- 66
2020-10-22 12:00:00 24.9 20 Sur 31 Sur 0 -- -- 68
2020-10-22 11:00:00 24 19 Sur 28 Sur 0 -- -- 68
2020-10-22 10:00:00 23.5 16 Sur 23 Sur 0 -- -- 67
2020-10-22 09:00:00 22 12 Sudeste 22 Sudeste 0 -- -- 75
2020-10-22 08:00:00 21.7 15 Sudeste 22 Sudeste 0 -- -- 73
2020-10-22 07:00:00 21.5 14 Sudeste 23 Sudeste 0 -- -- 74
2020-10-22 06:00:00 21.9 17 Sudeste 25 Sudeste 0 -- -- 69
2020-10-22 05:00:00 22 15 Sudeste 26 Sudeste 0 -- -- 72
2020-10-22 04:00:00 22.1 17 Sudeste 26 Sudeste 0 -- -- 71
2020-10-22 03:00:00 21.2 9 Sudeste 20 Sudeste 0 -- -- 78
2020-10-22 02:00:00 21 13 Sudeste 18 Sudeste 0 -- -- 78
2020-10-22 01:00:00 19.8 9 Sudeste 14 Este 0 -- -- 86
2020-10-22 00:00:00 19.8 11 Este 15 Este 0 -- -- 89
2020-10-21 23:00:00 19.3 9 Sudeste 12 Sudeste 0 -- -- 87
2020-10-21 22:00:00 19.8 8 Sudeste 12 Sudeste 0 -- -- 86
2020-10-21 21:00:00 20.5 9 Sudeste 14 Sudeste 0 -- -- 86
2020-10-21 20:00:00 21.5 13 Sudeste 17 Sudeste 0 -- -- 83
2020-10-21 19:00:00 22.6 9 Sur 16 Sur 0 -- -- 77
2020-10-21 18:00:00 23.4 9 Sur 20 Sudoeste 0 -- -- 77
2020-10-21 17:00:00 24.2 10 Sudoeste 24 Sudoeste 0 -- -- 76
2020-10-21 16:00:00 24.6 13 Oeste 30 Oeste 0 -- -- 75
2020-10-21 15:00:00 24.7 15 Sudoeste 29 Sudoeste 0 -- -- 75
2020-10-21 14:00:00 24.5 16 Sudoeste 36 Sudoeste 0 -- -- 75
2020-10-21 13:00:00 24.4 21 Sudoeste 35 Sudoeste 0 -- -- 76
2020-10-21 12:00:00 24.1 25 Sudoeste 37 Sudoeste 0 -- -- 74
2020-10-21 11:00:00 24.5 22 Sur 36 Sur 0 -- -- 62
2020-10-21 10:00:00 23.6 21 Sur 36 Sur 0 -- -- 64
2020-10-21 09:00:00 23.1 22 Sur 37 Sur 0 -- -- 65
2020-10-21 08:00:00 22.4 21 Sur 32 Sur 0 -- -- 67
2020-10-21 07:00:00 21.8 15 Sur 30 Sudeste 0 -- -- 74
2020-10-21 06:00:00 21.9 19 Sudeste 32 Sudeste 0 -- -- 72
2020-10-21 05:00:00 21.9 23 Sudeste 35 Sur 0 -- -- 74
2020-10-21 04:00:00 21.4 21 Sudeste 36 Sudeste 0 -- -- 80
2020-10-21 03:00:00 21.4 21 Sudeste 36 Sudeste 0 -- -- 83
2020-10-21 02:00:00 21 19 Sudeste 30 Sudeste 0 -- -- 84
2020-10-21 01:00:00 20.8 12 Sudeste 29 Sudeste 0 -- -- 85
2020-10-21 00:00:00 20.8 19 Sudeste 35 Sudeste 0 -- -- 86
2020-10-20 23:00:00 20.2 16 Sudeste 23 Sudeste 0 -- -- 89
2020-10-20 22:00:00 20.3 16 Sudeste 26 Sudeste 0 -- -- 89
2020-10-20 21:00:00 20.3 17 Sudeste 22 Sudeste 0 -- -- 90
2020-10-20 20:00:00 20.2 11 Sudeste 17 Sudeste 0 -- -- 89
2020-10-20 19:00:00 21.2 11 Sudeste 30 Sudeste 0 -- -- 85
2020-10-20 18:00:00 22.7 20 Sudeste 31 Sudeste 0 -- -- 79
2020-10-20 17:00:00 23.6 22 Sudeste 31 Sudeste 0 -- -- 74
2020-10-20 16:00:00 23.9 23 Sudeste 31 Sudeste 0 -- -- 73
2020-10-20 15:00:00 24.1 22 Sudeste 36 Sudeste 0 -- -- 71
2020-10-20 14:00:00 23.9 23 Sudeste 35 Sudeste 0 -- -- 71
2020-10-20 13:00:00 23.2 23 Sudeste 39 Este 0 -- -- 72
2020-10-20 12:00:00 23.1 22 Sudeste 36 Sudeste 0 -- -- 72
2020-10-20 11:00:00 21.8 20 Sudeste 31 Sudeste 0 -- -- 76
2020-10-20 10:00:00 16.9 6 Este 22 Este 0 -- -- 95
2020-10-20 09:00:00 10.9 3 Nordeste 7 Nordeste 0 -- -- 96
2020-10-20 08:00:00 7.9 0 Calma 3 Norte 0 -- -- 94
2020-10-20 07:00:00 7.8 0 Calma 6 Norte 0 -- -- 94
2020-10-20 06:00:00 8 0 Calma 4 Sudeste 0 -- -- 93
2020-10-20 05:00:00 8.4 0 Calma 4 Sudeste 0 -- -- 93
2020-10-20 04:00:00 9.1 2 Norte 5 Noroeste 0 -- -- 92
2020-10-20 03:00:00 9.2 0 Calma 5 Sudeste 0 -- -- 92
2020-10-20 02:00:00 9.2 0 Calma 4 Sudeste 0 -- -- 91
2020-10-20 01:00:00 10.1 0 Calma 5 Sudeste 0 -- -- 90
2020-10-20 00:00:00 10.7 0 Calma 3 Oeste 0 -- -- 89
2020-10-19 23:00:00 11.6 0 Calma 4 Sudeste 0 -- -- 87
2020-10-19 22:00:00 12.8 0 Calma 3 Sudeste 0 -- -- 83
2020-10-19 21:00:00 15.2 0 Calma 8 Este 0 -- -- 76
2020-10-19 20:00:00 18 5 Este 18 Sudeste 0 -- -- 73
2020-10-19 19:00:00 19.9 12 Sudeste 29 Sudeste 0 -- -- 68
2020-10-19 18:00:00 21.3 20 Sudeste 32 Este 0 -- -- 64
2020-10-19 17:00:00 22.3 17 Sudeste 35 Este 0 -- -- 61
2020-10-19 16:00:00 22.6 17 Sudeste 31 Sudeste 0 -- -- 61
2020-10-19 15:00:00 22.7 18 Sudeste 32 Sudeste 0 -- -- 57
2020-10-19 14:00:00 23.1 15 Sudeste 27 Sur 0 -- -- 55
2020-10-19 13:00:00 22 14 Sudeste 24 Sudeste 0 -- -- 58
2020-10-19 12:00:00 21.4 8 Sur 25 Sudeste 0 -- -- 60
2020-10-19 11:00:00 19.1 6 Noroeste 11 Norte 0 -- -- 73
2020-10-19 10:00:00 15.8 2 Norte 5 Nordeste 0 -- -- 85
2020-10-19 09:00:00 9.7 0 Calma 4 Norte 0 -- -- 95
2020-10-19 08:00:00 7.3 0 Calma 2 Noroeste 0 -- -- 93
2020-10-19 07:00:00 7.2 0 Calma 3 Norte 0 -- -- 93
2020-10-19 06:00:00 7.3 0 Calma 2 Sur 0 -- -- 92
2020-10-19 05:00:00 7.8 0 Calma 2 Norte 0 -- -- 92
2020-10-19 04:00:00 8 0 Calma 2 Noroeste 0 -- -- 91
2020-10-19 03:00:00 8.5 0 Calma 4 Sudeste 0 -- -- 90
2020-10-19 02:00:00 9.1 0 Calma 3 Sudeste 0 -- -- 90
2020-10-19 01:00:00 9.7 0 Calma 2 Sudeste 0 -- -- 88
2020-10-19 00:00:00 10.7 0 Calma 3 Sudeste 0 -- -- 85
2020-10-18 23:00:00 12.4 0 Calma 3 Norte 0 -- -- 80
2020-10-18 22:00:00 13.6 2 Sudeste 5 Sudeste 0 -- -- 78
2020-10-18 21:00:00 14.4 4 Sudeste 6 Sudeste 0 -- -- 75
2020-10-18 20:00:00 17.3 3 Sudeste 9 Sur 0 -- -- 68
2020-10-18 19:00:00 20.2 5 Sur 13 Sur 0 -- -- 62
2020-10-18 18:00:00 21.5 9 Sur 20 Sur 0 -- -- 58
2020-10-18 17:00:00 22.2 8 Sur 21 Sur 0 -- -- 55
2020-10-18 16:00:00 22.3 10 Sur 22 Sur 0 -- -- 54
2020-10-18 15:00:00 21.9 12 Sudoeste 24 Sudoeste 0 -- -- 49
2020-10-18 14:00:00 22 11 Sudoeste 19 Sur 0 -- -- 49
2020-10-18 13:00:00 21.8 10 Sur 17 Sur 0 -- -- 50
2020-10-18 12:00:00 20.2 12 Norte 21 Norte 0 -- -- 54
2020-10-18 11:00:00 18.4 8 Norte 12 Nordeste 0 -- -- 64
2020-10-18 10:00:00 13.5 4 Oeste 6 Oeste 0 -- -- 84
2020-10-18 09:00:00 8.3 0 Calma 3 Norte 0 -- -- 93
2020-10-18 08:00:00 5.4 0 Calma 3 Norte 0 -- -- 92
2020-10-18 07:00:00 5.7 0 Calma 3 Noroeste 0 -- -- 92
2020-10-18 06:00:00 5.9 2 Norte 4 Nordeste 0 -- -- 92
2020-10-18 05:00:00 6.1 0 Calma 3 Norte 0 -- -- 91
2020-10-18 04:00:00 6.5 0 Calma 2 Norte 0 -- -- 90
2020-10-18 03:00:00 7.5 0 Calma 3 Noroeste 0 -- -- 90
2020-10-18 02:00:00 8.5 0 Calma 3 Norte 0 -- -- 89
2020-10-18 01:00:00 8.6 0 Calma 2 Norte 0 -- -- 88
2020-10-18 00:00:00 9.5 0 Calma 3 Norte 0 -- -- 87
2020-10-17 23:00:00 10.7 0 Calma 3 Sudeste 0 -- -- 84
2020-10-17 22:00:00 12.1 0 Calma 4 Norte 0 -- -- 79
2020-10-17 21:00:00 13.1 2 Sudeste 3 Este 0 -- -- 77
2020-10-17 20:00:00 15.4 2 Este 5 Sudoeste 0 -- -- 71
2020-10-17 19:00:00 18.9 3 Sudoeste 14 Sudoeste 0 -- -- 63
2020-10-17 18:00:00 20.2 7 Sudoeste 18 Sudoeste 0 -- -- 57
2020-10-17 17:00:00 20.7 11 Sudoeste 19 Sudoeste 0 -- -- 54
2020-10-17 16:00:00 20.9 10 Sudoeste 22 Sudoeste 0 -- -- 51
2020-10-17 15:00:00 20.7 11 Sudoeste 21 Oeste 0 -- -- 52
2020-10-17 14:00:00 20.4 13 Sudoeste 22 Sudoeste 0 -- -- 50
2020-10-17 13:00:00 20.2 10 Sudoeste 18 Sudoeste 0 -- -- 50
2020-10-17 12:00:00 19.6 8 Sudoeste 15 Sudoeste 0 -- -- 52
2020-10-17 11:00:00 16.5 0 Calma 3 Oeste 0 -- -- 66
2020-10-17 10:00:00 11 0 Calma 2 Noroeste 0 -- -- 83
2020-10-17 09:00:00 7.5 0 Calma 3 Nordeste 0 -- -- 92
2020-10-17 08:00:00 4.9 0 Calma 3 Sudeste 0 -- -- 93
2020-10-17 07:00:00 4.4 0 Calma 2 Nordeste 0 -- -- 92
2020-10-17 06:00:00 4.8 0 Calma 2 Norte 0 -- -- 91
2020-10-17 05:00:00 5.3 0 Calma 3 Noroeste 0 -- -- 91
2020-10-17 04:00:00 5.9 0 Calma 4 Nordeste 0 -- -- 90
2020-10-17 03:00:00 6.5 0 Calma 3 Nordeste 0 -- -- 89
2020-10-17 02:00:00 7.2 0 Calma 4 Norte 0 -- -- 89
2020-10-17 01:00:00 7.1 0 Calma 4 Sudeste 0 -- -- 87
2020-10-17 00:00:00 8 0 Calma 3 Sudeste 0 -- -- 85
2020-10-16 23:00:00 9.6 0 Calma 4 Oeste 0 -- -- 83
2020-10-16 22:00:00 10.2 0 Calma 5 Oeste 0 -- -- 79
2020-10-16 21:00:00 11.7 0 Calma 5 Nordeste 0 -- -- 74
2020-10-16 20:00:00 15.9 5 Noroeste 13 Noroeste 0 -- -- 66
2020-10-16 19:00:00 17.7 14 Oeste 23 Oeste 0 -- -- 60
2020-10-16 18:00:00 18.8 15 Oeste 32 Oeste 0 -- -- 57
2020-10-16 17:00:00 19.3 19 Oeste 29 Oeste 0 -- -- 56
2020-10-16 16:00:00 19.6 19 Oeste 35 Oeste 0 -- -- 53
2020-10-16 15:00:00 19.4 18 Oeste 30 Oeste 0 -- -- 53
2020-10-16 14:00:00 19.4 21 Oeste 30 Oeste 0 -- -- 51
2020-10-16 13:00:00 19.4 18 Oeste 28 Oeste 0 -- -- 54
2020-10-16 12:00:00 19.2 15 Oeste 29 Oeste 0 -- -- 54
2020-10-16 11:00:00 17.1 2 Noroeste 9 Norte 0 -- -- 69
2020-10-16 10:00:00 11.5 0 Calma 2 Noroeste 0 -- -- 86
2020-10-16 09:00:00 7.3 2 Norte 4 Norte 0 -- -- 93
2020-10-16 08:00:00 4.8 0 Calma 2 Sur 0 -- -- 93
2020-10-16 07:00:00 5.2 0 Calma 0 Calma 0 -- -- 92
2020-10-16 06:00:00 5.4 0 Calma 3 Sudeste 0 -- -- 91
2020-10-16 05:00:00 5.9 0 Calma 4 Sudeste 0 -- -- 91
2020-10-16 04:00:00 6.6 0 Calma 12 Norte 0 -- -- 87
2020-10-16 03:00:00 7.7 2 Norte 5 Norte 0 -- -- 89
2020-10-16 02:00:00 7.3 4 Sudeste 5 Sudeste 0 -- -- 88
2020-10-16 01:00:00 8.7 3 Norte 7 Sudeste 0 -- -- 85
2020-10-16 00:00:00 9.1 2 Este 9 Nordeste 0 -- -- 76
2020-10-15 23:00:00 11.9 6 Nordeste 10 Norte 0 -- -- 76
2020-10-15 22:00:00 11.5 0 Calma 6 Oeste 0 -- -- 71
2020-10-15 21:00:00 14.8 7 Noroeste 23 Noroeste 0 -- -- 64
2020-10-15 20:00:00 15.9 12 Oeste 20 Oeste 0 -- -- 58
2020-10-15 19:00:00 17.2 13 Noroeste 32 Noroeste 0 -- -- 59
2020-10-15 18:00:00 18.7 22 Noroeste 39 Noroeste 0 -- -- 52
2020-10-15 17:00:00 18.9 26 Oeste 41 Oeste 0 -- -- 51
2020-10-15 16:00:00 19.8 24 Oeste 40 Oeste 0 -- -- 48
2020-10-15 15:00:00 19.6 26 Oeste 39 Oeste 0 -- -- 51
2020-10-15 14:00:00 19.3 23 Noroeste 48 Oeste 0 -- -- 53
2020-10-15 13:00:00 19 21 Noroeste 32 Noroeste 0 -- -- 51
2020-10-15 12:00:00 17.9 13 Noroeste 27 Oeste 0 -- -- 56
2020-10-15 11:00:00 17.4 14 Oeste 22 Oeste 0 -- -- 61
2020-10-15 10:00:00 14.5 8 Noroeste 12 Oeste 0 -- -- 78
2020-10-15 09:00:00 8.1 2 Sudeste 4 Sur 0 -- -- 97
2020-10-15 08:00:00 5.4 0 Calma 9 Norte 0 -- -- 95
2020-10-15 07:00:00 6.3 6 Norte 10 Norte 0 -- -- 95
2020-10-15 06:00:00 6.4 0 Calma 6 Sudeste 0 -- -- 94
2020-10-15 05:00:00 6.8 5 Sudeste 7 Sudeste 0 -- -- 94
2020-10-15 04:00:00 7.9 0 Calma 5 Sur 0 -- -- 93
2020-10-15 03:00:00 8.7 0 Calma 5 Nordeste 0 -- -- 91
2020-10-15 02:00:00 10.3 4 Nordeste 13 Nordeste 0 -- -- 90
2020-10-15 01:00:00 11.4 10 Nordeste 21 Nordeste 0 -- -- 87
2020-10-15 00:00:00 10.8 6 Norte 17 Noroeste 0 -- -- 91
2020-10-14 23:00:00 11 3 Noroeste 9 Sudeste 0 -- -- 93
2020-10-14 22:00:00 10.8 5 Sudeste 6 Sudeste 0 -- -- 91
2020-10-14 21:00:00 13 0 Calma 6 Norte 0 -- -- 85
2020-10-14 20:00:00 15.3 5 Nordeste 17 Norte 0 -- -- 83
2020-10-14 19:00:00 17.1 12 Noroeste 26 Noroeste 0 -- -- 78
2020-10-14 18:00:00 17.6 6 Noroeste 13 Noroeste 0 -- -- 77
2020-10-14 17:00:00 17 8 Norte 23 Norte 0 -- -- 80
2020-10-14 16:00:00 16.5 10 Norte 23 Norte 0.4 -- -- 84
2020-10-14 15:00:00 17.8 16 Norte 27 Nordeste 0 -- -- 74
2020-10-14 14:00:00 17.6 16 Norte 39 Nordeste 0 -- -- 79
2020-10-14 13:00:00 18.3 27 Norte 45 Norte 0 -- -- 76
2020-10-14 12:00:00 20.6 17 Norte 25 Norte 0 -- -- 77
2020-10-14 11:00:00 19.8 18 Norte 25 Norte 0 -- -- 79
2020-10-14 10:00:00 18 12 Norte 25 Norte 0 -- -- 85
2020-10-14 09:00:00 18.8 13 Noroeste 42 Oeste 0.4 -- -- 83
2020-10-14 08:00:00 21 21 Sudoeste 41 Sudoeste 0 -- -- 76
2020-10-14 07:00:00 20.7 20 Sudoeste 36 Sudoeste 0 -- -- 72
2020-10-14 06:00:00 20.1 16 Sur 26 Sur 0 -- -- 76
2020-10-14 05:00:00 20.2 13 Sur 23 Sur 0 -- -- 75
2020-10-14 04:00:00 20.4 10 Sur 23 Sur 0 -- -- 75
2020-10-14 03:00:00 19.6 12 Sur 17 Sur 0 -- -- 76
2020-10-14 02:00:00 17.1 6 Sur 9 Sur 0 -- -- 91
2020-10-14 01:00:00 16.4 0 Calma 4 Este 0 -- -- 89
2020-10-14 00:00:00 16.7 0 Calma 10 Sudoeste 0.4 -- -- 88
2020-10-13 23:00:00 15.9 0 Calma 5 Norte 0 -- -- 80
2020-10-13 22:00:00 15.4 0 Calma 7 Sudeste 0 -- -- 79
2020-10-13 21:00:00 16.7 3 Sur 10 Oeste 0 -- -- 72
2020-10-13 20:00:00 19.7 3 Oeste 21 Oeste 0 -- -- 66
2020-10-13 19:00:00 21.3 17 Oeste 26 Oeste 0 -- -- 60
2020-10-13 18:00:00 22.5 17 Oeste 35 Oeste 0 -- -- 56
2020-10-13 17:00:00 23.2 26 Oeste 47 Noroeste 0 -- -- 53
2020-10-13 16:00:00 23.2 27 Oeste 46 Noroeste 0 -- -- 49
2020-10-13 15:00:00 22.8 27 Oeste 40 Oeste 0 -- -- 55
2020-10-13 14:00:00 22 24 Oeste 38 Sudoeste 0 -- -- 59
2020-10-13 13:00:00 22 24 Oeste 39 Oeste 0 -- -- 57
2020-10-13 12:00:00 21 15 Oeste 25 Noroeste 0 -- -- 60
2020-10-13 11:00:00 20.3 12 Oeste 22 Oeste 0 -- -- 62
2020-10-13 10:00:00 18.7 5 Noroeste 9 Noroeste 0 -- -- 71
2020-10-13 09:00:00 14.3 4 Noroeste 7 Noroeste 0 -- -- 80
2020-10-13 08:00:00 11.9 3 Sudeste 8 Sur 0 -- -- 87
2020-10-13 07:00:00 10.2 2 Este 5 Sudeste 0 -- -- 90
2020-10-13 06:00:00 9.8 0 Calma 4 Sur 0 -- -- 88
2020-10-13 05:00:00 10.9 0 Calma 4 Norte 0 -- -- 86
2020-10-13 04:00:00 11 7 Norte 14 Norte 0 -- -- 85
2020-10-13 03:00:00 9.1 0 Calma 4 Sudeste 0 -- -- 88
2020-10-13 02:00:00 8.4 0 Calma 4 Sur 0 -- -- 86
2020-10-13 01:00:00 -- -- -- -- -- -- -- -- --
2020-10-13 00:00:00 9.8 0 Calma 3 Este 0 -- -- 78
2020-10-12 23:00:00 10.6 3 Sudeste 7 Sudeste 0 -- -- 76
2020-10-12 22:00:00 11 3 Sudeste 6 Sudeste 0 -- -- 71
2020-10-12 21:00:00 12.7 0 Calma 7 Noroeste 0 -- -- 65
2020-10-12 20:00:00 16.9 5 Noroeste 19 Noroeste 0 -- -- 53
2020-10-12 19:00:00 19.7 12 Oeste 30 Noroeste 0 -- -- 47
2020-10-12 18:00:00 -- -- -- -- -- -- -- -- --
2020-10-12 17:00:00 21.7 18 Oeste 39 Oeste 0 -- -- 47
2020-10-12 16:00:00 21.7 27 Oeste 40 Oeste 0 -- -- 49
2020-10-12 15:00:00 21.6 10 Sudoeste 25 Sudoeste 0 -- -- 46
2020-10-12 14:00:00 19.5 15 Sudoeste 27 Oeste 0 -- -- 56
2020-10-12 13:00:00 20.5 8 Noroeste 26 Noroeste 0 -- -- 50
2020-10-12 12:00:00 20.1 11 Noroeste 22 Noroeste 0 -- -- 50
2020-10-12 11:00:00 18.7 0 Calma 4 Sudoeste 0 -- -- 58
2020-10-12 10:00:00 15.1 3 Oeste 5 Noroeste 0 -- -- 78
2020-10-12 09:00:00 11.8 0 Calma 9 Sur 0 -- -- 88
2020-10-12 08:00:00 10.7 4 Este 12 Nordeste 0 -- -- 92
2020-10-12 07:00:00 10.2 5 Nordeste 16 Norte 0 -- -- 93
2020-10-12 06:00:00 10.5 2 Noroeste 18 Nordeste 0 -- -- 92
2020-10-12 05:00:00 9.3 5 Norte 8 Norte 0 -- -- 91
2020-10-12 04:00:00 -- -- -- -- -- -- -- -- --
2020-10-12 03:00:00 10.4 3 Este 7 Noroeste 0 -- -- 88
2020-10-12 02:00:00 11.7 3 Noroeste 12 Este 0 -- -- 84
2020-10-12 01:00:00 12.1 10 Este 35 Nordeste 0 -- -- 81
2020-10-12 00:00:00 11.7 4 Norte 11 Norte 0 -- -- 92
2020-10-11 23:00:00 11.2 2 Sur 7 Sudeste 0 -- -- 91
2020-10-11 22:00:00 11.4 4 Sudeste 5 Sudeste 0 -- -- 90
2020-10-11 21:00:00 -- -- -- -- -- -- -- -- --
2020-10-11 20:00:00 -- -- -- -- -- -- -- -- --
2020-10-11 19:00:00 16.9 5 Norte 11 Norte 0 -- -- 74
2020-10-11 18:00:00 17.4 12 Norte 22 Norte 0 -- -- 71
2020-10-11 17:00:00 16.8 11 Nordeste 28 Nordeste 0 -- -- 77
2020-10-11 16:00:00 16.1 21 Norte 33 Nordeste 0 -- -- 82
2020-10-11 15:00:00 17.1 17 Norte 35 Nordeste 0 -- -- 74
2020-10-11 14:00:00 17.7 19 Nordeste 29 Nordeste 0 -- -- 72
2020-10-11 13:00:00 17.6 17 Nordeste 40 Nordeste 0 -- -- 76
2020-10-11 12:00:00 19 17 Nordeste 30 Nordeste 0 -- -- 68
2020-10-11 11:00:00 18.6 15 Nordeste 28 Este 0 -- -- 67
2020-10-11 10:00:00 17.2 12 Nordeste 16 Nordeste 0 -- -- 74
2020-10-11 09:00:00 16.2 8 Norte 12 Nordeste 0 -- -- 81
2020-10-11 08:00:00 15.4 5 Nordeste 14 Nordeste 0 -- -- 84
2020-10-11 07:00:00 16 9 Nordeste 20 Norte 0 -- -- 83
2020-10-11 06:00:00 16.3 10 Nordeste 18 Nordeste 0 -- -- 83
2020-10-11 05:00:00 16.2 9 Nordeste 22 Nordeste 0 -- -- 85
2020-10-11 04:00:00 16.1 12 Nordeste 26 Nordeste 0 -- -- 86
2020-10-11 03:00:00 16.1 18 Nordeste 31 Nordeste 0 -- -- 87
2020-10-11 02:00:00 16.6 15 Nordeste 25 Nordeste 0 -- -- 87
2020-10-11 01:00:00 16.5 19 Nordeste 40 Nordeste 0 -- -- 88
2020-10-11 00:00:00 18.7 13 Nordeste 21 Norte 0 -- -- 86
2020-10-10 23:00:00 20.2 6 Nordeste 15 Nordeste 0 -- -- 84
2020-10-10 22:00:00 20.5 4 Sudeste 6 Sudeste 0 -- -- 86
2020-10-10 21:00:00 20.5 4 Sudeste 6 Sudoeste 0 -- -- 82
2020-10-10 20:00:00 21.7 3 Sudoeste 8 Sudoeste 0 -- -- 79
2020-10-10 19:00:00 22.1 5 Sudoeste 10 Sur 0 -- -- 76
2020-10-10 18:00:00 22.8 8 Sur 19 Sur 0 -- -- 74
2020-10-10 17:00:00 24.4 12 Sudoeste 24 Sudoeste 0 -- -- 66
2020-10-10 16:00:00 23.4 14 Sur 27 Sur 0 -- -- 72
2020-10-10 15:00:00 24.2 13 Sur 22 Sur 0 -- -- 69
2020-10-10 14:00:00 24.2 12 Sur 17 Sur 0 -- -- 67
2020-10-10 13:00:00 23.2 11 Sur 18 Sur 0 -- -- 72
2020-10-10 12:00:00 23.4 2 Noroeste 12 Norte 0 -- -- 73
2020-10-10 11:00:00 21.2 8 Norte 10 Norte 0 -- -- 82
2020-10-10 10:00:00 19.2 4 Norte 9 Norte 0 -- -- 89
2020-10-10 09:00:00 16.8 2 Norte 5 Norte 0 -- -- 94
2020-10-10 08:00:00 15.4 0 Calma 5 Norte 0 -- -- 94
2020-10-10 07:00:00 15.3 0 Calma 0 Calma 0 -- -- 93
2020-10-10 06:00:00 15.1 0 Calma 2 Sudeste 0 -- -- 92
2020-10-10 05:00:00 15.4 0 Calma 5 Norte 0 -- -- 90
2020-10-10 04:00:00 16.2 0 Calma 6 Sudeste 0 -- -- 91
2020-10-10 03:00:00 16.8 3 Sudeste 4 Sudeste 0 -- -- 88
2020-10-10 02:00:00 18.5 3 Sudeste 5 Norte 0 -- -- 85
2020-10-10 01:00:00 19.6 2 Nordeste 4 Sudeste 0 -- -- 84
2020-10-10 00:00:00 19.3 0 Calma 8 Nordeste 0 -- -- 84
2020-10-09 23:00:00 20.5 2 Sudeste 6 Sudeste 0 -- -- 81
2020-10-09 22:00:00 20.7 4 Sudeste 9 Sudeste 0 -- -- 79
2020-10-09 21:00:00 21.1 0 Calma 12 Sudeste 0 -- -- 79
2020-10-09 20:00:00 21 3 Sudeste 12 Este 0 -- -- 77
2020-10-09 19:00:00 22.7 8 Sudeste 17 Sudeste 0 -- -- 73
2020-10-09 18:00:00 24.2 11 Sudeste 20 Sur 0 -- -- 68
2020-10-09 17:00:00 24.7 12 Sudoeste 24 Sudoeste 0 -- -- 65
2020-10-09 16:00:00 25.2 12 Sur 20 Sur 0 -- -- 64
2020-10-09 15:00:00 24.9 12 Sudoeste 21 Sur 0 -- -- 65
2020-10-09 14:00:00 25.3 11 Sudoeste 21 Sur 0 -- -- 64
2020-10-09 13:00:00 24.2 10 Sur 17 Sudeste 0 -- -- 69
2020-10-09 12:00:00 25 4 Sudoeste 13 Sudeste 0 -- -- 68
2020-10-09 11:00:00 22.5 5 Este 10 Sudeste 0 -- -- 75
2020-10-09 10:00:00 19 4 Noroeste 4 Noroeste 0 -- -- 86
2020-10-09 09:00:00 15 0 Calma 3 Noroeste 0 -- -- 94
2020-10-09 08:00:00 12.7 0 Calma 2 Sudeste 0 -- -- 94
2020-10-09 07:00:00 12.9 0 Calma 2 Noroeste 0 -- -- 94
2020-10-09 06:00:00 12.3 0 Calma 3 Noroeste 0 -- -- 93
2020-10-09 05:00:00 12.4 0 Calma 2 Sudeste 0 -- -- 93
2020-10-09 04:00:00 12.7 0 Calma 4 Sudeste 0 -- -- 93
2020-10-09 03:00:00 13 0 Calma 3 Norte 0 -- -- 91
2020-10-09 02:00:00 13.5 0 Calma 3 Sudeste 0 -- -- 91
2020-10-09 01:00:00 14.1 0 Calma 3 Norte 0 -- -- 90
2020-10-09 00:00:00 15.1 0 Calma 2 Norte 0 -- -- 89
2020-10-08 23:00:00 16.1 0 Calma 6 Sudeste 0 -- -- 89
2020-10-08 22:00:00 16.7 3 Sur 4 Sudeste 0 -- -- 86
2020-10-08 21:00:00 17.9 3 Sudeste 5 Sudeste 0 -- -- 84
2020-10-08 20:00:00 20 4 Sudeste 8 Sur 0 -- -- 78
2020-10-08 19:00:00 22.3 7 Sur 14 Sur 0 -- -- 73
2020-10-08 18:00:00 23.4 9 Sur 15 Sur 0 -- -- 69
2020-10-08 17:00:00 23.1 8 Sudoeste 18 Sudoeste 0 -- -- 70
2020-10-08 16:00:00 23.1 12 Sudoeste 20 Sur 0 -- -- 69
2020-10-08 15:00:00 23.6 13 Sur 21 Sudoeste 0 -- -- 67
2020-10-08 14:00:00 23.1 10 Sur 17 Sur 0 -- -- 68
2020-10-08 13:00:00 22.6 10 Sur 17 Sudoeste 0 -- -- 70
2020-10-08 12:00:00 23.9 9 Oeste 15 Oeste 0 -- -- 64
2020-10-08 11:00:00 23 5 Nordeste 13 Este 0 -- -- 67
2020-10-08 10:00:00 20.5 5 Norte 8 Nordeste 0 -- -- 78
2020-10-08 09:00:00 17.2 4 Norte 6 Norte 0 -- -- 89
2020-10-08 08:00:00 15.5 2 Noroeste 4 Norte 0 -- -- 92
2020-10-08 07:00:00 13.9 0 Calma 3 Norte 0 -- -- 90
2020-10-08 06:00:00 14.7 2 Norte 6 Norte 0 -- -- 90
2020-10-08 05:00:00 15 0 Calma 5 Norte 0 -- -- 89
2020-10-08 04:00:00 16.2 3 Norte 9 Nordeste 0 -- -- 88
2020-10-08 03:00:00 17.2 5 Nordeste 12 Nordeste 0 -- -- 86
2020-10-08 02:00:00 17.5 5 Nordeste 10 Norte 0 -- -- 86
2020-10-08 01:00:00 17.6 4 Nordeste 8 Nordeste 0 -- -- 85
2020-10-08 00:00:00 18.1 5 Norte 11 Nordeste 0 -- -- 84
2020-10-07 23:00:00 19.7 8 Este 14 Nordeste 0 -- -- 79
2020-10-07 22:00:00 20.1 6 Nordeste 15 Este 0 -- -- 78
2020-10-07 21:00:00 20.8 10 Este 28 Este 0 -- -- 76
2020-10-07 20:00:00 21.2 18 Este 30 Este 0 -- -- 76
2020-10-07 19:00:00 22.2 18 Este 34 Este 0 -- -- 74
2020-10-07 18:00:00 24 18 Este 41 Este 0 -- -- 72
2020-10-07 17:00:00 27.2 10 Sudeste 22 Norte 0 -- -- 58
2020-10-07 16:00:00 27.8 13 Noroeste 32 Noroeste 0 -- -- 50
2020-10-07 15:00:00 27.9 22 Noroeste 40 Noroeste 0 -- -- 49
2020-10-07 14:00:00 27.6 26 Noroeste 40 Noroeste 0 -- -- 50
2020-10-07 13:00:00 24.9 18 Oeste 33 Oeste 0 -- -- 80
2020-10-07 12:00:00 24.6 17 Oeste 40 Sudoeste 0 -- -- 76
2020-10-07 11:00:00 24.2 19 Oeste 28 Oeste 0 -- -- 73
2020-10-07 10:00:00 23.5 16 Oeste 24 Sudoeste 0 -- -- 82
2020-10-07 09:00:00 20.4 10 Oeste 19 Oeste 0 -- -- 84
2020-10-07 08:00:00 19 2 Norte 24 Oeste 0 -- -- 86
2020-10-07 07:00:00 21.5 17 Oeste 23 Oeste 0 -- -- 83
2020-10-07 06:00:00 21.5 15 Oeste 24 Oeste 0 -- -- 82
2020-10-07 05:00:00 21.4 17 Oeste 26 Oeste 0 -- -- 81
2020-10-07 04:00:00 21.4 17 Oeste 31 Oeste 0 -- -- 80
2020-10-07 03:00:00 21.4 17 Oeste 30 Oeste 0 -- -- 79
2020-10-07 02:00:00 21.4 14 Sudoeste 24 Oeste 0 -- -- 76
2020-10-07 01:00:00 21.4 14 Oeste 26 Sudoeste 0 -- -- 74
2020-10-07 00:00:00 21.5 13 Oeste 23 Sudoeste 0 -- -- 73
2020-10-06 23:00:00 21.7 17 Oeste 26 Oeste 0 -- -- 69
2020-10-06 22:00:00 21.6 14 Oeste 24 Oeste 0 -- -- 68
2020-10-06 21:00:00 21.7 12 Sudoeste 23 Sudoeste 0 -- -- 68
2020-10-06 20:00:00 21.7 10 Sudoeste 26 Oeste 0 -- -- 65
2020-10-06 19:00:00 22.5 16 Oeste 28 Oeste 0 -- -- 63
2020-10-06 18:00:00 23.2 13 Sudoeste 32 Oeste 0 -- -- 61
2020-10-06 17:00:00 24.2 17 Sudoeste 33 Oeste 0 -- -- 56
2020-10-06 16:00:00 24.4 18 Sudoeste 34 Sudoeste 0 -- -- 55
2020-10-06 15:00:00 24.2 18 Sudoeste 32 Sudoeste 0 -- -- 56
2020-10-06 14:00:00 23.9 22 Oeste 33 Sudoeste 0 -- -- 59
2020-10-06 13:00:00 24.1 16 Sudoeste 31 Sudoeste 0 -- -- 54
2020-10-06 12:00:00 23.6 14 Sudoeste 28 Sudoeste 0 -- -- 55
2020-10-06 11:00:00 21.6 9 Oeste 15 Oeste 0 -- -- 63
2020-10-06 10:00:00 16.1 2 Sudeste 4 Este 0 -- -- 78
2020-10-06 09:00:00 11.1 0 Calma 3 Este 0 -- -- 90
2020-10-06 08:00:00 7.9 0 Calma 2 Norte 0 -- -- 92
2020-10-06 07:00:00 7.9 0 Calma 2 Sudeste 0 -- -- 92
2020-10-06 06:00:00 7.7 2 Sudeste 4 Sudeste 0 -- -- 92
2020-10-06 05:00:00 8.1 0 Calma -- -- 0 -- -- 91
2020-10-06 04:00:00 8.8 0 Calma 6 Norte 0 -- -- 89
2020-10-06 03:00:00 8.5 5 Sudeste 6 Sudeste 0 -- -- 90
2020-10-06 02:00:00 9.2 0 Calma 6 Noroeste 0 -- -- 88
2020-10-06 01:00:00 9.6 2 Sudoeste 5 Noroeste 0 -- -- 85
2020-10-06 00:00:00 11.1 2 Nordeste 4 Norte 0 -- -- 85
2020-10-05 23:00:00 11.5 0 Calma 3 Sur 0 -- -- 81
2020-10-05 22:00:00 13.3 0 Calma 4 Este 0 -- -- 75
2020-10-05 21:00:00 16.4 3 Este 15 Noroeste 0 -- -- 67
2020-10-05 20:00:00 18.6 12 Noroeste 16 Noroeste 0 -- -- 60
2020-10-05 19:00:00 20.8 11 Oeste 25 Oeste 0 -- -- 58
2020-10-05 18:00:00 21.9 18 Oeste 26 Oeste 0 -- -- 57
2020-10-05 17:00:00 22.7 13 Sudoeste 22 Sudoeste 0 -- -- 56
2020-10-05 16:00:00 22.6 13 Sudoeste 22 Sudoeste 0 -- -- 53
2020-10-05 15:00:00 22.7 13 Oeste 20 Oeste 0 -- -- 54
2020-10-05 14:00:00 21.7 10 Noroeste 22 Noroeste 0 -- -- 51
2020-10-05 13:00:00 19.5 7 Norte 38 Noroeste 0 -- -- 56
2020-10-05 12:00:00 18.3 27 Noroeste 39 Noroeste 0 -- -- 66
2020-10-05 11:00:00 19 0 Calma 7 Norte 0 -- -- 71
2020-10-05 10:00:00 14.1 0 Calma 3 Noroeste 0 -- -- 85
2020-10-05 09:00:00 12.3 0 Calma 5 Norte 0 -- -- 89
2020-10-05 08:00:00 11.1 0 Calma 6 Sudeste 0 -- -- 91
2020-10-05 07:00:00 10.7 4 Sudeste 6 Sudeste 0 -- -- 92
2020-10-05 06:00:00 10.8 0 Calma 8 Sudeste 0 -- -- 90
2020-10-05 05:00:00 11.2 0 Calma 4 Sudeste 0 -- -- 89
2020-10-05 04:00:00 12.9 2 Norte 10 Norte 0 -- -- 88
2020-10-05 03:00:00 14.2 2 Norte 5 Norte 0 -- -- 85
2020-10-05 02:00:00 16.3 0 Calma 10 Nordeste 0 -- -- 77
2020-10-05 01:00:00 18.3 8 Nordeste 24 Noroeste 0 -- -- 70
2020-10-05 00:00:00 21.3 20 Noroeste 51 Oeste 0 -- -- 62
2020-10-04 23:00:00 21.9 30 Oeste 48 Oeste 0 -- -- 60
2020-10-04 22:00:00 21.5 22 Oeste 40 Sudoeste 0 -- -- 62
2020-10-04 21:00:00 21.4 23 Oeste 33 Oeste 0 -- -- 61
2020-10-04 20:00:00 21.1 21 Oeste 41 Sudoeste 0 -- -- 61
2020-10-04 19:00:00 21.3 26 Oeste 48 Sudoeste 0 -- -- 56
2020-10-04 18:00:00 22.3 29 Oeste 52 Sudoeste 0 -- -- 53
2020-10-04 17:00:00 22.6 31 Oeste 48 Sudoeste 0 -- -- 51
2020-10-04 16:00:00 22 28 Oeste 53 Oeste 0 -- -- 54
2020-10-04 15:00:00 21.9 37 Oeste 59 Oeste 0 -- -- 52
2020-10-04 14:00:00 22.6 33 Oeste 53 Oeste 0 -- -- 46
2020-10-04 13:00:00 22.4 37 Oeste 54 Oeste 0 -- -- 47
2020-10-04 12:00:00 22.3 36 Oeste 59 Oeste 0 -- -- 46
2020-10-04 11:00:00 22 28 Oeste 47 Sudoeste 0 -- -- 49
2020-10-04 10:00:00 21.4 26 Oeste 41 Oeste 0 -- -- 48
2020-10-04 09:00:00 20.9 20 Sudoeste 45 Oeste 0 -- -- 51
2020-10-04 08:00:00 20.2 24 Sudoeste 46 Oeste 0 -- -- 48
2020-10-04 07:00:00 20.6 28 Oeste 40 Oeste 0 -- -- 51
2020-10-04 06:00:00 20.5 26 Oeste 43 Oeste 0 -- -- 52
2020-10-04 05:00:00 20.7 27 Oeste 47 Oeste 0 -- -- 54
2020-10-04 04:00:00 20.8 24 Oeste 41 Oeste 0 -- -- 50
2020-10-04 03:00:00 20.8 24 Oeste 36 Oeste 0 -- -- 51
2020-10-04 02:00:00 20.9 20 Sudoeste 42 Sudoeste 0 -- -- 63
2020-10-04 01:00:00 20.6 12 Sudoeste 30 Sudoeste 0 -- -- 58
2020-10-04 00:00:00 20 11 Sudoeste 29 Oeste 0 -- -- 56
2020-10-03 23:00:00 20 15 Oeste 33 Sudoeste 0 -- -- 56
2020-10-03 22:00:00 20 20 Sudoeste 35 Oeste 0 -- -- 57
2020-10-03 21:00:00 19.7 23 Oeste 38 Oeste 0 -- -- 55
2020-10-03 20:00:00 19.5 22 Oeste 37 Oeste 0 -- -- 56
2020-10-03 19:00:00 20.3 23 Oeste 38 Oeste 0 -- -- 52
2020-10-03 18:00:00 21.3 27 Oeste 50 Oeste 0 -- -- 51
2020-10-03 17:00:00 21.5 31 Oeste 48 Oeste 0 -- -- 50
2020-10-03 16:00:00 22.1 24 Oeste 49 Oeste 0 -- -- 49
2020-10-03 15:00:00 21.8 30 Oeste 42 Oeste 0 -- -- 47
2020-10-03 14:00:00 21.7 27 Oeste 38 Oeste 0 -- -- 46
2020-10-03 13:00:00 20.8 27 Oeste 50 Oeste 0 -- -- 49
2020-10-03 12:00:00 20.6 22 Oeste 35 Sudoeste 0 -- -- 51
2020-10-03 11:00:00 20.1 21 Oeste 35 Oeste 0 -- -- 58
2020-10-03 10:00:00 17.4 14 Oeste 26 Oeste 0 -- -- 68
2020-10-03 09:00:00 12.7 2 Nordeste 7 Noroeste 0 -- -- 94
2020-10-03 08:00:00 10.9 3 Norte 5 Norte 0 -- -- 95
2020-10-03 07:00:00 11.1 0 Calma 6 Este 0 -- -- 95
2020-10-03 06:00:00 11.5 3 Este 12 Noroeste 0 -- -- 94
2020-10-03 05:00:00 11.2 4 Sudeste 6 Sudeste 0 -- -- 94
2020-10-03 04:00:00 11 4 Sudeste 6 Sur 0 -- -- 93
2020-10-03 03:00:00 13.5 4 Nordeste 19 Oeste 0 -- -- 90
2020-10-03 02:00:00 16.3 11 Oeste 33 Sudoeste 0 -- -- 78
2020-10-03 01:00:00 15.1 12 Sudoeste 24 Sudoeste 0 -- -- 88
2020-10-03 00:00:00 13.3 3 Sudeste 12 Oeste 0.8 -- -- 91
2020-10-02 23:00:00 13.1 6 Noroeste 33 Oeste 1.6 -- -- 89
2020-10-02 22:00:00 14.3 18 Oeste 33 Oeste 0.2 -- -- 83
2020-10-02 21:00:00 14.8 24 Noroeste 40 Noroeste 0 -- -- 84
2020-10-02 20:00:00 15.1 39 Noroeste 66 Noroeste 0.2 -- -- 88
2020-10-02 19:00:00 22.4 37 Oeste 63 Sudoeste 0 -- -- 71
2020-10-02 18:00:00 23.5 31 Sudoeste 62 Sudoeste 0 -- -- 76
2020-10-02 17:00:00 23.7 35 Sudoeste 61 Sudoeste 0 -- -- 77
2020-10-02 16:00:00 24.1 30 Sudoeste 57 Sudoeste 0 -- -- 75
2020-10-02 15:00:00 24.8 29 Sudoeste 59 Sudoeste 0 -- -- 73
2020-10-02 14:00:00 24.7 24 Sudoeste 47 Sudoeste 0 -- -- 74
2020-10-02 13:00:00 24.3 30 Sudoeste 56 Sudoeste 0 -- -- 78
2020-10-02 12:00:00 24.9 28 Sudoeste 47 Sudoeste 0 -- -- 76
2020-10-02 11:00:00 25 23 Sudoeste 45 Sudoeste 0 -- -- 71
2020-10-02 10:00:00 23.8 18 Sudoeste 40 Sudoeste 0 -- -- 76
2020-10-02 09:00:00 23.2 23 Sudoeste 39 Sudoeste 0 -- -- 83
2020-10-02 08:00:00 23.1 21 Sudoeste 41 Sudoeste 0 -- -- 83
2020-10-02 07:00:00 23 23 Sudoeste 44 Oeste 0 -- -- 88
2020-10-02 06:00:00 23 21 Sudoeste 40 Sudoeste 0 -- -- 88
2020-10-02 05:00:00 22.9 20 Sudoeste 38 Sudoeste 0 -- -- 89
2020-10-02 04:00:00 22.9 22 Sudoeste 40 Sudoeste 0 -- -- 89
2020-10-02 03:00:00 22.7 16 Sur 32 Sur 0 -- -- 88
2020-10-02 02:00:00 22.8 13 Sudoeste 26 Sudoeste 0 -- -- 87
2020-10-02 01:00:00 22.7 11 Sudoeste 19 Sudoeste 0 -- -- 89
2020-10-02 00:00:00 22.4 9 Sur 17 Sur 0 -- -- 88
2020-10-01 23:00:00 22.5 9 Sur 18 Sudoeste 0 -- -- 87
2020-10-01 22:00:00 22.6 9 Sudoeste 21 Sudoeste 0 -- -- 87
2020-10-01 21:00:00 22.8 11 Sudoeste 19 Sudoeste 0 -- -- 86
2020-10-01 20:00:00 22.9 11 Sudoeste 20 Sudoeste 0 -- -- 85
2020-10-01 19:00:00 23.7 10 Sudoeste 20 Sudoeste 0 -- -- 82
2020-10-01 18:00:00 24.6 12 Sudoeste 24 Sudoeste 0 -- -- 77
2020-10-01 17:00:00 25.5 15 Sudoeste 30 Oeste 0 -- -- 75
2020-10-01 16:00:00 25.7 16 Sudoeste 32 Sudoeste 0 -- -- 73
2020-10-01 15:00:00 25.9 16 Sudoeste 35 Sudoeste 0 -- -- 73
2020-10-01 14:00:00 25.7 19 Sudoeste 32 Sudoeste 0 -- -- 70
2020-10-01 13:00:00 25.9 15 Sudoeste 37 Sudoeste 0 -- -- 67
2020-10-01 12:00:00 25.3 17 Sudoeste 34 Oeste 0 -- -- 71
2020-10-01 11:00:00 24.7 17 Sudoeste 32 Sudoeste 0 -- -- 73
2020-10-01 10:00:00 23.3 17 Sudoeste 25 Sudoeste 0 -- -- 78
2020-10-01 09:00:00 16.2 0 Calma 6 Norte 0 -- -- 91
2020-10-01 08:00:00 15.2 4 Norte 8 Norte 0 -- -- 91
2020-10-01 07:00:00 14.5 0 Calma 4 Noroeste 0 -- -- 92
2020-10-01 06:00:00 14.5 0 Calma 5 Norte 0 -- -- 91
2020-10-01 05:00:00 14.6 0 Calma 4 Norte 0 -- -- 92
2020-10-01 04:00:00 14.7 0 Calma 4 Norte 0 -- -- 91
2020-10-01 03:00:00 15 0 Calma 3 Noroeste 0 -- -- 90
2020-10-01 02:00:00 15.5 0 Calma 3 Sudeste 0 -- -- 90
2020-10-01 01:00:00 15.7 2 Sudeste 3 Sur 0 -- -- 87
2020-10-01 00:00:00 17 0 Calma 5 Norte 0 -- -- 86